Terminal Aerodrome Forecast
Issued by NWS Wilmington, NC

Home | Current Version | Previous Version | Text Only | Print | Product List | Glossary On
Versions: 1 2 3 4 5 6 7 8 9 10 11 12 13
433
FTUS42 KILM 171120
TAFILM
TAF
KILM 171120Z 1712/1812 00000KT P6SM SCT250
     FM171300 01005KT P6SM BKN150
     FM172100 34009KT P6SM -RA OVC040
     FM180000 33011KT 6SM -RA OVC008
     FM180100 33012G18KT 3SM -SN OVC008
     FM180400 33013G19KT 6SM -SHSN BKN025=

USA.gov is the U.S. government's official web portal to all federal, state and local government web resources and services.